createdAt,value
2018-06-29T00:01:59.320Z,63.45
2018-06-29T00:04:30.818Z,63.77
2018-06-29T00:07:02.286Z,64.07
2018-06-29T00:09:35.151Z,64.26
2018-06-29T00:12:09.903Z,64.66
2018-06-29T00:14:42.967Z,64.54
2018-06-29T00:17:13.049Z,64.34
2018-06-29T00:19:45.085Z,64.55
2018-06-29T00:22:19.796Z,64.64
2018-06-29T00:24:50.587Z,64.54
2018-06-29T00:27:20.502Z,65.16
2018-06-29T00:29:50.537Z,65.25
2018-06-29T00:32:20.440Z,65.08
2018-06-29T00:34:53.340Z,65.53
2018-06-29T00:37:23.935Z,65.56
2018-06-29T00:39:57.599Z,65.88
2018-06-29T00:42:30.805Z,66.30
2018-06-29T00:45:03.945Z,66.45
2018-06-29T00:47:36.923Z,66.13
2018-06-29T00:50:08.689Z,66.67
2018-06-29T00:52:40.529Z,66.56
2018-06-29T00:55:12.061Z,66.49
2018-06-29T00:57:44.981Z,66.12
2018-06-29T01:00:16.560Z,66.16
2018-06-29T01:02:48.547Z,66.00
2018-06-29T01:05:19.019Z,66.41
2018-06-29T01:07:50.706Z,66.59
2018-06-29T01:10:20.793Z,66.06
2018-06-29T01:12:52.306Z,66.52
2018-06-29T01:15:24.135Z,65.79
2018-06-29T01:17:58.656Z,66.03
2018-06-29T01:20:31.816Z,65.56
2018-06-29T01:23:03.410Z,65.95
2018-06-29T01:25:34.933Z,66.41
2018-06-29T01:28:06.546Z,66.88
2018-06-29T01:30:38.144Z,67.06
2018-06-29T01:33:08.633Z,66.98
2018-06-29T01:35:43.533Z,67.54
2018-06-29T01:38:16.379Z,67.94
2018-06-29T01:40:47.939Z,68.67
2018-06-29T01:43:21.255Z,68.74
2018-06-29T01:45:51.397Z,69.20
2018-06-29T01:48:26.073Z,69.56
2018-06-29T01:50:59.587Z,70.03
2018-06-29T01:53:29.748Z,70.68
2018-06-29T01:56:04.788Z,71.24
2018-06-29T01:58:38.051Z,71.68
2018-06-29T02:01:12.632Z,72.14
2018-06-29T02:03:45.838Z,72.66
2018-06-29T02:06:15.879Z,72.96
2018-06-29T02:08:47.541Z,73.52
2018-06-29T02:11:17.602Z,73.92
2018-06-29T02:13:50.648Z,74.33
2018-06-29T02:16:23.667Z,74.42
2018-06-29T02:18:54.162Z,74.29
2018-06-29T02:21:27.017Z,74.51
2018-06-29T02:23:58.504Z,74.63
2018-06-29T02:26:31.561Z,74.54
2018-06-29T02:29:03.099Z,75.27
2018-06-29T02:31:36.312Z,74.71
2018-06-29T02:34:07.899Z,74.90
2018-06-29T02:36:40.317Z,74.78
2018-06-29T02:39:16.305Z,74.80
2018-06-29T02:41:48.512Z,74.77
2018-06-29T02:44:23.243Z,74.93
2018-06-29T02:46:56.852Z,74.66
2018-06-29T02:49:28.515Z,75.02
2018-06-29T02:52:00.057Z,74.86
2018-06-29T02:54:34.516Z,74.70
2018-06-29T02:57:08.985Z,75.13
2018-06-29T02:59:41.397Z,75.13
2018-06-29T03:02:15.053Z,75.03
2018-06-29T03:04:45.188Z,75.30
2018-06-29T03:07:18.229Z,75.62
2018-06-29T03:09:50.976Z,75.17
2018-06-29T03:12:22.485Z,75.26
2018-06-29T03:14:52.645Z,75.46
2018-06-29T03:17:22.572Z,75.61
2018-06-29T03:19:55.359Z,75.68
2018-06-29T03:22:30.290Z,75.86
2018-06-29T03:25:03.543Z,75.77
2018-06-29T03:27:38.112Z,76.10
2018-06-29T03:30:12.370Z,76.18
2018-06-29T03:32:45.548Z,76.38
2018-06-29T03:35:18.610Z,75.64
2018-06-29T03:37:51.491Z,75.09
2018-06-29T03:40:23.045Z,74.98
2018-06-29T03:42:55.969Z,74.35
2018-06-29T03:45:26.156Z,74.11
2018-06-29T03:47:59.243Z,73.94
2018-06-29T03:50:32.354Z,74.04
2018-06-29T03:53:04.273Z,73.19
2018-06-29T03:55:38.874Z,72.97
2018-06-29T03:58:10.447Z,73.12
2018-06-29T04:00:41.937Z,72.80
2018-06-29T04:03:16.486Z,71.31
2018-06-29T04:05:48.037Z,69.58
2018-06-29T04:08:19.607Z,68.34
2018-06-29T04:10:51.192Z,66.58
2018-06-29T04:13:22.633Z,65.71
2018-06-29T04:15:55.795Z,64.78
2018-06-29T04:18:26.193Z,64.70
2018-06-29T04:21:00.543Z,63.71
2018-06-29T04:23:34.018Z,63.55
2018-06-29T04:26:06.998Z,64.49
2018-06-29T04:28:39.266Z,63.25
2018-06-29T04:31:12.336Z,62.11
2018-06-29T04:33:46.728Z,61.74
2018-06-29T04:36:18.414Z,61.65
2018-06-29T04:38:49.802Z,60.99
2018-06-29T04:41:20.085Z,61.65
2018-06-29T04:43:51.665Z,62.11
2018-06-29T04:46:23.104Z,61.70
2018-06-29T04:48:55.978Z,63.83
2018-06-29T04:51:27.901Z,61.75
2018-06-29T04:53:57.850Z,60.74
2018-06-29T04:56:30.841Z,60.99
2018-06-29T04:59:02.276Z,62.17
2018-06-29T05:01:35.097Z,61.00
2018-06-29T05:04:07.141Z,59.77
2018-06-29T05:06:37.228Z,58.88
2018-06-29T05:09:13.243Z,58.94
2018-06-29T05:11:46.558Z,57.75
2018-06-29T05:14:16.536Z,57.42
2018-06-29T05:16:50.144Z,56.21
2018-06-29T05:19:22.280Z,56.15
2018-06-29T05:21:55.007Z,55.70
2018-06-29T05:24:29.048Z,54.40
2018-06-29T05:27:00.480Z,53.38
2018-06-29T05:29:31.927Z,52.60
2018-06-29T05:32:01.939Z,52.85
2018-06-29T05:34:33.347Z,51.52
2018-06-29T05:37:07.928Z,50.89
2018-06-29T05:39:42.347Z,51.54
2018-06-29T05:42:15.357Z,52.06
2018-06-29T05:44:48.337Z,51.48
2018-06-29T05:47:19.850Z,49.47
2018-06-29T05:49:51.251Z,51.79
2018-06-29T05:52:22.634Z,51.48
2018-06-29T05:54:55.619Z,50.08
2018-06-29T05:57:27.282Z,51.14
2018-06-29T06:00:01.652Z,48.91
2018-06-29T06:02:34.637Z,47.26
2018-06-29T06:05:09.225Z,47.13
2018-06-29T06:07:41.148Z,45.61
2018-06-29T06:10:14.878Z,46.32
2018-06-29T06:12:46.241Z,48.42
2018-06-29T06:15:16.191Z,48.59
2018-06-29T06:17:47.889Z,48.66
2018-06-29T06:20:20.228Z,45.66
2018-06-29T06:22:53.063Z,46.50
2018-06-29T06:25:25.084Z,45.73
2018-06-29T06:27:54.905Z,45.23
2018-06-29T06:30:27.905Z,46.14
2018-06-29T06:32:57.900Z,45.15
2018-06-29T06:35:30.766Z,48.30
2018-06-29T06:38:01.011Z,44.36
2018-06-29T06:40:34.009Z,43.74
2018-06-29T06:43:07.681Z,42.41
2018-06-29T06:45:40.571Z,45.16
2018-06-29T06:48:11.946Z,43.90
2018-06-29T06:50:43.631Z,42.35
2018-06-29T06:53:15.036Z,45.86
2018-06-29T06:55:48.424Z,45.13
2018-06-29T06:58:21.431Z,44.68
2018-06-29T07:00:56.368Z,45.05
2018-06-29T07:03:27.023Z,43.58
2018-06-29T07:05:57.009Z,43.37
2018-06-29T07:08:31.635Z,41.54
2018-06-29T07:11:04.630Z,41.95
2018-06-29T07:13:34.554Z,42.68
2018-06-29T07:16:06.382Z,42.25
2018-06-29T07:18:39.233Z,42.63
2018-06-29T07:21:10.715Z,39.39
2018-06-29T07:23:43.696Z,40.00
2018-06-29T07:26:13.580Z,40.99
2018-06-29T07:28:46.457Z,40.89
2018-06-29T07:31:19.503Z,41.37
2018-06-29T07:33:50.809Z,42.11
2018-06-29T07:36:23.788Z,38.49
2018-06-29T07:38:55.337Z,37.45
2018-06-29T07:41:26.770Z,38.34
2018-06-29T07:43:58.305Z,37.19
2018-06-29T07:46:28.975Z,37.07
2018-06-29T07:48:58.842Z,39.92
2018-06-29T07:51:30.220Z,39.23
2018-06-29T07:54:04.438Z,37.41
2018-06-29T07:56:35.788Z,39.18
2018-06-29T07:59:07.802Z,34.31
2018-06-29T08:01:37.853Z,36.93
2018-06-29T08:04:09.571Z,37.42
2018-06-29T08:06:39.476Z,35.37
2018-06-29T08:09:15.524Z,34.94
2018-06-29T08:11:47.469Z,32.49
2018-06-29T08:14:18.896Z,31.67
2018-06-29T08:16:51.742Z,31.31
2018-06-29T08:19:21.648Z,30.61
2018-06-29T08:21:54.527Z,32.23
2018-06-29T08:24:27.347Z,31.31
2018-06-29T08:27:01.634Z,31.64
2018-06-29T08:29:35.888Z,31.37
2018-06-29T08:32:06.366Z,31.78
2018-06-29T08:34:39.163Z,31.98
2018-06-29T08:37:10.721Z,33.63
2018-06-29T08:39:42.067Z,31.98
2018-06-29T08:42:13.397Z,30.38
2018-06-29T08:44:44.782Z,32.55
2018-06-29T08:47:17.872Z,31.69
2018-06-29T08:49:52.511Z,31.84
2018-06-29T08:52:22.926Z,29.84
2018-06-29T08:54:53.335Z,30.45
2018-06-29T08:57:25.849Z,31.91
2018-06-29T09:00:00.280Z,34.06
2018-06-29T09:02:34.810Z,30.96
2018-06-29T09:05:05.058Z,31.42
2018-06-29T09:07:36.339Z,31.52
2018-06-29T09:10:08.684Z,33.76
2018-06-29T09:12:41.539Z,32.56
2018-06-29T09:15:16.303Z,32.76
2018-06-29T09:17:47.633Z,32.68
2018-06-29T09:20:19.729Z,29.91
2018-06-29T09:22:52.686Z,35.21
2018-06-29T09:25:24.111Z,33.74
2018-06-29T09:27:55.512Z,32.89
2018-06-29T09:30:27.713Z,34.79
2018-06-29T09:33:01.902Z,31.31
2018-06-29T09:35:33.345Z,32.62
2018-06-29T09:38:04.316Z,31.00
2018-06-29T09:40:35.657Z,34.15
2018-06-29T09:43:07.088Z,34.79
2018-06-29T09:45:41.321Z,34.12
2018-06-29T09:48:15.796Z,33.98
2018-06-29T09:50:48.718Z,35.79
2018-06-29T09:53:21.627Z,31.73
2018-06-29T09:55:54.662Z,34.25
2018-06-29T09:58:27.509Z,34.60
2018-06-29T10:00:58.946Z,34.22
2018-06-29T10:03:31.975Z,32.23
2018-06-29T10:06:05.608Z,31.19
2018-06-29T10:08:36.946Z,35.00
2018-06-29T10:11:09.931Z,33.23
2018-06-29T10:13:42.804Z,35.89
2018-06-29T10:16:14.513Z,32.85
2018-06-29T10:18:45.853Z,33.82
2018-06-29T10:21:18.999Z,33.57
2018-06-29T10:23:49.048Z,35.89
2018-06-29T10:26:18.934Z,33.69
2018-06-29T10:28:51.794Z,31.35
2018-06-29T10:31:24.724Z,32.37
2018-06-29T10:33:57.668Z,34.69
2018-06-29T10:36:30.878Z,32.52
2018-06-29T10:39:03.350Z,33.54
2018-06-29T10:41:36.656Z,30.95
2018-06-29T10:44:08.081Z,34.46
2018-06-29T10:46:40.491Z,32.14
2018-06-29T10:49:12.252Z,31.36
2018-06-29T10:51:43.888Z,33.46
2018-06-29T10:54:15.950Z,30.68
2018-06-29T10:56:48.985Z,33.16
2018-06-29T10:59:18.871Z,32.91
2018-06-29T11:01:53.231Z,31.42
2018-06-29T11:04:27.535Z,28.60
2018-06-29T11:07:00.714Z,32.59
2018-06-29T11:09:33.491Z,33.37
2018-06-29T11:12:15.281Z,31.26
2018-06-29T11:14:46.812Z,29.30
2018-06-29T11:17:19.643Z,29.95
2018-06-29T11:19:51.408Z,28.61
2018-06-29T11:22:23.034Z,31.81
2018-06-29T11:24:55.996Z,33.09
2018-06-29T11:27:28.875Z,33.00
2018-06-29T11:30:00.176Z,31.03
2018-06-29T11:32:33.114Z,29.80
2018-06-29T11:35:06.216Z,27.83
2018-06-29T11:37:40.239Z,32.74
2018-06-29T11:40:13.111Z,32.24
2018-06-29T11:42:45.902Z,30.74
2018-06-29T11:45:18.793Z,30.92
2018-06-29T11:47:53.108Z,30.88
2018-06-29T11:50:24.672Z,28.46
2018-06-29T11:52:59.339Z,29.49
2018-06-29T11:55:32.182Z,29.27
2018-06-29T11:58:05.077Z,31.18
2018-06-29T12:00:35.018Z,29.36
2018-06-29T12:03:06.861Z,32.01
2018-06-29T12:05:36.870Z,30.93
2018-06-29T12:08:08.467Z,34.12
2018-06-29T12:10:40.051Z,30.30
2018-06-29T12:13:12.859Z,30.68
2018-06-29T12:15:44.307Z,30.31
2018-06-29T12:18:17.178Z,31.65
2018-06-29T12:20:50.046Z,30.77
2018-06-29T12:23:22.759Z,29.98
2018-06-29T12:25:52.698Z,27.95
2018-06-29T12:28:24.485Z,31.40
2018-06-29T12:30:58.213Z,30.69
2018-06-29T12:33:28.208Z,33.86
2018-06-29T12:36:02.873Z,28.87
2018-06-29T12:38:33.882Z,30.04
2018-06-29T12:41:05.809Z,30.08
2018-06-29T12:43:37.453Z,31.74
2018-06-29T12:46:12.118Z,30.49
2018-06-29T12:48:45.303Z,31.57
2018-06-29T12:51:19.580Z,30.66
2018-06-29T12:53:51.333Z,30.94
2018-06-29T12:56:24.258Z,34.53
2018-06-29T12:58:56.099Z,32.29
2018-06-29T13:01:26.026Z,33.68
2018-06-29T13:04:00.540Z,32.09
2018-06-29T13:06:33.509Z,33.48
2018-06-29T13:09:06.431Z,32.92
2018-06-29T13:11:39.862Z,36.56
2018-06-29T13:14:14.127Z,33.70
2018-06-29T13:16:45.434Z,34.15
2018-06-29T13:19:19.068Z,35.72
2018-06-29T13:21:51.968Z,34.40
2018-06-29T13:24:26.188Z,33.18
2018-06-29T13:26:57.670Z,36.16
2018-06-29T13:29:29.289Z,34.01
2018-06-29T13:32:02.109Z,35.29
2018-06-29T13:34:31.213Z,37.05
2018-06-29T13:37:05.727Z,35.50
2018-06-29T13:39:38.695Z,37.52
2018-06-29T13:42:10.888Z,37.22
2018-06-29T13:44:45.356Z,37.25
2018-06-29T13:47:18.210Z,36.87
2018-06-29T13:49:51.433Z,37.88
2018-06-29T13:52:24.625Z,38.13
2018-06-29T13:54:56.358Z,37.29
2018-06-29T13:57:27.725Z,35.92
2018-06-29T13:59:59.519Z,35.35
2018-06-29T14:02:30.985Z,34.52
2018-06-29T14:05:04.505Z,36.92
2018-06-29T14:07:37.316Z,37.45
2018-06-29T14:10:10.636Z,36.05
2018-06-29T14:12:43.543Z,35.04
2018-06-29T14:15:17.847Z,34.36
2018-06-29T14:17:49.901Z,37.63
2018-06-29T14:20:22.778Z,36.45
2018-06-29T14:22:54.216Z,34.77
2018-06-29T14:25:24.094Z,35.21
2018-06-29T14:27:57.066Z,36.71
2018-06-29T14:30:31.606Z,37.30
2018-06-29T14:33:03.743Z,34.61
2018-06-29T14:35:35.132Z,34.32
2018-06-29T14:38:09.664Z,33.98
2018-06-29T14:40:41.036Z,34.39
2018-06-29T14:43:10.891Z,36.80
2018-06-29T14:45:44.026Z,36.82
2018-06-29T14:48:15.695Z,36.20
2018-06-29T14:50:47.155Z,35.03
2018-06-29T14:53:19.122Z,37.04
2018-06-29T14:55:48.991Z,39.29
2018-06-29T14:58:18.649Z,40.39
2018-06-29T15:00:51.229Z,41.02
2018-06-29T15:03:24.087Z,42.19
2018-06-29T15:05:55.441Z,41.56
2018-06-29T15:08:28.587Z,42.05
2018-06-29T15:10:58.565Z,44.04
2018-06-29T15:13:28.518Z,42.80
2018-06-29T15:16:00.022Z,42.82
2018-06-29T15:18:32.902Z,43.89
2018-06-29T15:21:07.259Z,43.40
2018-06-29T15:23:38.112Z,43.35
2018-06-29T15:26:10.988Z,43.41
2018-06-29T15:28:40.995Z,46.57
2018-06-29T15:31:12.705Z,46.75
2018-06-29T15:33:44.149Z,44.87
2018-06-29T15:36:15.522Z,47.67
2018-06-29T15:38:47.709Z,45.12
2018-06-29T15:41:18.246Z,46.31
2018-06-29T15:43:51.620Z,46.38
2018-06-29T15:46:24.447Z,47.48
2018-06-29T15:48:57.376Z,45.99
2018-06-29T15:51:30.431Z,49.06
2018-06-29T15:54:03.521Z,48.57
2018-06-29T15:56:36.424Z,47.89
2018-06-29T15:59:06.418Z,49.33
2018-06-29T16:01:40.859Z,48.92
2018-06-29T16:04:12.228Z,49.37
2018-06-29T16:06:42.140Z,49.35
2018-06-29T16:09:13.531Z,48.64
2018-06-29T16:11:44.088Z,49.36
2018-06-29T16:14:15.333Z,48.80
2018-06-29T16:16:50.031Z,49.40
2018-06-29T16:19:22.930Z,49.58
2018-06-29T16:21:57.632Z,48.70
2018-06-29T16:24:30.490Z,49.03
2018-06-29T16:27:01.902Z,48.32
2018-06-29T16:29:34.828Z,48.41
2018-06-29T16:32:05.340Z,48.62
2018-06-29T16:34:36.760Z,48.15
2018-06-29T16:37:06.836Z,47.13
2018-06-29T16:39:37.853Z,47.90
2018-06-29T16:42:09.331Z,48.83
2018-06-29T16:44:40.696Z,49.21
2018-06-29T16:47:12.013Z,48.69
2018-06-29T16:49:44.928Z,49.06
2018-06-29T16:52:15.013Z,49.17
2018-06-29T16:54:49.285Z,48.25
2018-06-29T16:57:22.615Z,47.58
2018-06-29T16:59:54.017Z,48.76
2018-06-29T17:02:26.870Z,48.86
2018-06-29T17:05:00.064Z,48.58
2018-06-29T17:07:33.117Z,48.01
2018-06-29T17:10:03.043Z,48.85
2018-06-29T17:12:34.405Z,48.11
2018-06-29T17:15:04.268Z,49.27
2018-06-29T17:17:34.290Z,49.05
2018-06-29T17:20:05.902Z,49.00
2018-06-29T17:22:38.896Z,48.83
2018-06-29T17:25:08.832Z,49.63
2018-06-29T17:27:41.590Z,50.64
2018-06-29T17:30:11.659Z,51.50
2018-06-29T17:32:41.585Z,50.71
2018-06-29T17:35:14.468Z,51.76
2018-06-29T17:37:46.407Z,51.76
2018-06-29T17:40:16.479Z,51.79
2018-06-29T17:42:48.440Z,53.15
2018-06-29T17:45:19.821Z,53.51
2018-06-29T17:47:52.924Z,53.33
2018-06-29T17:50:26.030Z,53.82
2018-06-29T17:52:56.847Z,54.14
2018-06-29T17:55:26.907Z,54.51
2018-06-29T17:57:58.211Z,54.42
2018-06-29T18:00:29.213Z,55.00
2018-06-29T18:03:00.703Z,55.73
2018-06-29T18:05:33.676Z,55.71
2018-06-29T18:08:07.980Z,55.55
2018-06-29T18:10:37.985Z,55.35
2018-06-29T18:13:09.591Z,55.36
2018-06-29T18:15:42.368Z,55.99
2018-06-29T18:18:15.560Z,55.57
2018-06-29T18:20:48.490Z,55.88
2018-06-29T18:23:18.517Z,56.73
2018-06-29T18:25:50.012Z,56.82
2018-06-29T18:28:22.858Z,56.62
2018-06-29T18:30:57.346Z,57.22
2018-06-29T18:33:27.754Z,58.20
2018-06-29T18:36:02.088Z,58.86
2018-06-29T18:38:36.398Z,58.89
2018-06-29T18:41:06.365Z,59.36
2018-06-29T18:43:38.396Z,60.25
2018-06-29T18:46:11.493Z,61.20
2018-06-29T18:48:45.966Z,61.59
2018-06-29T18:51:16.034Z,62.15
2018-06-29T18:53:47.792Z,63.12
2018-06-29T18:56:20.842Z,63.33
2018-06-29T18:58:52.512Z,63.34
2018-06-29T19:01:23.959Z,64.04
2018-06-29T19:03:55.474Z,64.31
2018-06-29T19:06:27.385Z,64.41
2018-06-29T19:09:00.288Z,65.31
2018-06-29T19:11:30.439Z,65.37
2018-06-29T19:14:02.179Z,65.22
2018-06-29T19:16:35.087Z,65.08
2018-06-29T19:19:07.053Z,64.99
2018-06-29T19:21:40.231Z,66.01
2018-06-29T19:24:14.737Z,65.61
2018-06-29T19:26:47.549Z,65.70
2018-06-29T19:29:18.947Z,66.67
2018-06-29T19:31:50.438Z,66.63
2018-06-29T19:34:22.402Z,66.33
2018-06-29T19:36:52.395Z,66.86
2018-06-29T19:39:23.753Z,66.22
2018-06-29T19:41:56.985Z,66.56
2018-06-29T19:44:31.588Z,66.61
2018-06-29T19:47:04.579Z,67.21
2018-06-29T19:49:35.143Z,67.74
2018-06-29T19:52:09.566Z,68.05
2018-06-29T19:54:42.456Z,68.84
2018-06-29T19:57:13.451Z,68.55
2018-06-29T19:59:43.462Z,69.12
2018-06-29T20:02:14.870Z,69.20
2018-06-29T20:04:46.530Z,69.09
2018-06-29T20:07:20.896Z,69.46
2018-06-29T20:09:55.371Z,69.69
2018-06-29T20:12:26.793Z,70.30
2018-06-29T20:15:01.365Z,70.28
2018-06-29T20:17:35.909Z,71.20
2018-06-29T20:20:12.501Z,70.69
2018-06-29T20:22:45.537Z,71.07
2018-06-29T20:25:18.567Z,71.20
2018-06-29T20:27:49.971Z,71.79
2018-06-29T20:30:23.049Z,71.50
2018-06-29T20:32:57.694Z,71.75
2018-06-29T20:35:29.160Z,72.08
2018-06-29T20:38:02.321Z,72.17
2018-06-29T20:40:35.316Z,72.07
2018-06-29T20:43:10.074Z,72.52
2018-06-29T20:45:40.720Z,72.13
2018-06-29T20:48:12.356Z,72.65
2018-06-29T20:50:43.963Z,73.10
2018-06-29T20:53:16.895Z,72.64
2018-06-29T20:55:49.919Z,72.71
2018-06-29T20:58:21.465Z,73.08
2018-06-29T21:00:56.193Z,72.76
2018-06-29T21:03:27.725Z,72.82
2018-06-29T21:06:00.686Z,73.31
2018-06-29T21:08:33.728Z,72.99
2018-06-29T21:11:05.702Z,73.41
2018-06-29T21:13:38.042Z,73.06
2018-06-29T21:16:09.215Z,73.66
2018-06-29T21:18:43.891Z,73.70
2018-06-29T21:21:16.854Z,73.68
2018-06-29T21:23:48.279Z,74.21
2018-06-29T21:26:21.267Z,74.26
2018-06-29T21:28:51.193Z,74.10
2018-06-29T21:31:25.563Z,74.21
2018-06-29T21:33:58.638Z,74.40
2018-06-29T21:36:30.346Z,74.57
2018-06-29T21:39:01.538Z,74.62
2018-06-29T21:41:34.540Z,75.05
2018-06-29T21:44:07.948Z,75.32
2018-06-29T21:46:41.129Z,74.97
2018-06-29T21:49:12.618Z,74.60
2018-06-29T21:51:44.384Z,74.77
2018-06-29T21:54:16.082Z,74.86
2018-06-29T21:56:48.903Z,75.07
2018-06-29T21:59:20.511Z,76.05
2018-06-29T22:01:52.084Z,75.51
2018-06-29T22:04:26.665Z,75.70
2018-06-29T22:06:58.264Z,75.11
2018-06-29T22:09:28.196Z,75.59
2018-06-29T22:12:00.008Z,75.67
2018-06-29T22:14:33.602Z,75.59
2018-06-29T22:17:05.191Z,75.78
2018-06-29T22:19:37.669Z,76.02
2018-06-29T22:22:09.282Z,76.11
2018-06-29T22:24:42.635Z,76.36
2018-06-29T22:27:17.040Z,76.12
2018-06-29T22:29:48.679Z,76.56
2018-06-29T22:32:20.422Z,76.54
2018-06-29T22:34:53.385Z,76.54
2018-06-29T22:37:23.399Z,76.37
2018-06-29T22:39:55.280Z,76.69
2018-06-29T22:42:26.728Z,76.75
2018-06-29T22:44:57.482Z,76.54
2018-06-29T22:47:27.548Z,76.97
2018-06-29T22:49:59.280Z,77.02
2018-06-29T22:52:29.272Z,77.21
2018-06-29T22:54:59.469Z,77.46
2018-06-29T22:57:29.545Z,77.18
2018-06-29T23:00:02.753Z,77.04
2018-06-29T23:02:34.310Z,77.24
2018-06-29T23:05:06.567Z,76.95
2018-06-29T23:07:41.217Z,77.39
2018-06-29T23:10:15.619Z,77.47
2018-06-29T23:12:45.755Z,77.20
2018-06-29T23:15:19.007Z,77.14
2018-06-29T23:17:49.046Z,77.51
2018-06-29T23:20:21.962Z,78.04
2018-06-29T23:22:55.391Z,78.34
2018-06-29T23:25:27.067Z,78.21
2018-06-29T23:27:57.041Z,78.37
2018-06-29T23:30:28.890Z,78.40
2018-06-29T23:33:00.943Z,78.32
2018-06-29T23:35:33.914Z,78.73
2018-06-29T23:38:07.271Z,78.35
2018-06-29T23:40:38.907Z,78.36
2018-06-29T23:43:10.361Z,78.55
2018-06-29T23:45:43.844Z,78.67
2018-06-29T23:48:15.747Z,78.54
2018-06-29T23:50:48.712Z,78.42
2018-06-29T23:53:20.216Z,78.62
2018-06-29T23:55:51.814Z,78.63
2018-06-29T23:58:23.605Z,78.48
